createdAt,value
2023-03-26T00:02:29.794Z,6.88
2023-03-26T00:05:04.390Z,8.32
2023-03-26T00:07:37.462Z,5.80
2023-03-26T00:10:11.173Z,8.50
2023-03-26T00:12:44.247Z,6.95
2023-03-26T00:15:17.268Z,7.05
2023-03-26T00:17:51.765Z,7.03
2023-03-26T00:20:27.515Z,6.95
2023-03-26T00:23:01.543Z,8.20
2023-03-26T00:25:35.070Z,7.53
2023-03-26T00:28:08.170Z,8.90
2023-03-26T00:30:42.200Z,10.20
2023-03-26T00:33:17.413Z,8.60
2023-03-26T00:35:55.526Z,9.45
2023-03-26T00:38:30.881Z,7.05
2023-03-26T00:41:06.006Z,10.60
2023-03-26T00:43:39.216Z,8.65
2023-03-26T00:46:12.767Z,5.57
2023-03-26T00:48:46.445Z,6.97
2023-03-26T00:51:22.447Z,9.25
2023-03-26T00:53:55.653Z,6.22
2023-03-26T00:56:28.707Z,6.00
2023-03-26T00:59:01.922Z,7.63
2023-03-26T01:04:30.621Z,7.70
2023-03-26T01:07:13.413Z,7.32
2023-03-26T01:09:50.307Z,5.38
2023-03-26T01:12:25.820Z,8.13
2023-03-26T01:15:01.799Z,6.45
2023-03-26T01:17:35.069Z,6.78
2023-03-26T01:20:15.026Z,5.35
2023-03-26T01:22:54.360Z,6.85
2023-03-26T01:25:34.290Z,6.63
2023-03-26T01:28:12.608Z,5.10
2023-03-26T01:30:58.621Z,10.40
2023-03-26T01:33:37.752Z,8.05
2023-03-26T01:36:19.063Z,6.95
2023-03-26T01:39:01.289Z,9.82
2023-03-26T01:41:44.132Z,8.25
2023-03-26T01:44:25.674Z,12.18
2023-03-26T01:47:01.531Z,7.25
2023-03-26T01:49:36.484Z,9.18
2023-03-26T01:52:16.069Z,8.27
2023-03-26T01:54:50.370Z,7.85
2023-03-26T02:00:16.538Z,5.85
2023-03-26T02:03:03.126Z,7.25
2023-03-26T02:05:43.912Z,8.77
2023-03-26T02:08:22.888Z,8.18
2023-03-26T02:10:59.897Z,7.18
2023-03-26T02:13:35.001Z,6.82
2023-03-26T02:16:11.712Z,8.73
2023-03-26T02:18:45.697Z,7.80
2023-03-26T02:21:21.645Z,4.75
2023-03-26T02:27:02.286Z,6.97
2023-03-26T02:29:38.262Z,7.47
2023-03-26T02:32:13.308Z,11.07
2023-03-26T02:34:47.403Z,6.30
2023-03-26T02:37:20.797Z,5.75
2023-03-26T02:39:59.652Z,8.88
2023-03-26T02:42:37.650Z,8.70
2023-03-26T02:45:12.127Z,8.80
2023-03-26T02:48:04.168Z,9.50
2023-03-26T02:50:54.223Z,7.95
2023-03-26T02:54:07.104Z,8.10
2023-03-26T02:56:42.907Z,7.40
2023-03-26T02:59:38.664Z,7.90
2023-03-26T03:02:33.021Z,9.57
2023-03-26T03:05:20.388Z,7.70
2023-03-26T03:07:59.665Z,8.50
2023-03-26T03:10:35.557Z,10.23
2023-03-26T03:13:19.980Z,8.57
2023-03-26T03:15:53.704Z,7.28
2023-03-26T03:18:28.377Z,9.60
2023-03-26T03:21:02.509Z,8.80
2023-03-26T03:26:23.163Z,11.98
2023-03-26T03:28:59.363Z,6.45
2023-03-26T03:31:32.545Z,9.75
2023-03-26T03:34:11.094Z,7.35
2023-03-26T03:36:50.453Z,8.60
2023-03-26T03:39:35.982Z,6.28
2023-03-26T03:42:12.268Z,9.07
2023-03-26T03:44:45.941Z,13.05
2023-03-26T03:47:39.528Z,6.78
2023-03-26T03:50:14.401Z,6.72
2023-03-26T03:52:59.324Z,6.95
2023-03-26T03:55:32.605Z,9.82
2023-03-26T03:58:09.182Z,8.90
2023-03-26T04:00:44.910Z,7.13
2023-03-26T04:03:42.301Z,6.47
2023-03-26T04:06:20.009Z,7.53
2023-03-26T04:09:00.833Z,5.65
2023-03-26T04:11:34.010Z,6.78
2023-03-26T04:14:21.722Z,5.47
2023-03-26T04:17:05.401Z,5.72
2023-03-26T04:19:41.068Z,7.72
2023-03-26T04:22:19.363Z,7.07
2023-03-26T04:25:02.356Z,7.25
2023-03-26T04:27:39.528Z,12.15
2023-03-26T04:30:27.372Z,8.30
2023-03-26T04:33:21.039Z,8.00
2023-03-26T04:38:30.413Z,7.05
2023-03-26T04:41:07.585Z,7.07
2023-03-26T04:44:03.457Z,6.22
2023-03-26T04:46:45.281Z,6.93
2023-03-26T04:49:26.922Z,6.97
2023-03-26T04:52:00.384Z,8.55
2023-03-26T04:55:16.991Z,8.77
2023-03-26T04:57:56.334Z,6.95
2023-03-26T05:00:49.655Z,6.18
2023-03-26T05:03:22.785Z,5.78
2023-03-26T05:05:56.112Z,9.68
2023-03-26T05:08:30.236Z,5.15
2023-03-26T05:11:07.439Z,4.57
2023-03-26T05:13:42.928Z,7.00
2023-03-26T05:16:18.869Z,6.00
2023-03-26T05:19:00.011Z,4.78
2023-03-26T05:21:38.405Z,5.07
2023-03-26T05:24:11.553Z,8.70
2023-03-26T05:26:47.677Z,9.65
2023-03-26T05:29:22.418Z,5.28
2023-03-26T05:31:58.587Z,6.55
2023-03-26T05:34:31.604Z,4.65
2023-03-26T05:37:06.896Z,5.88
2023-03-26T05:39:54.968Z,5.28
2023-03-26T05:42:46.503Z,6.78
2023-03-26T05:45:48.899Z,5.78
2023-03-26T05:48:30.643Z,6.30
2023-03-26T05:51:03.847Z,7.28
2023-03-26T05:53:38.615Z,7.25
2023-03-26T05:56:30.342Z,5.63
2023-03-26T05:59:23.273Z,6.55
2023-03-26T06:02:14.750Z,5.53
2023-03-26T06:04:47.939Z,5.75
2023-03-26T06:07:37.847Z,5.65
2023-03-26T06:10:19.138Z,6.32
2023-03-26T06:12:52.655Z,6.18
2023-03-26T06:15:35.145Z,5.63
2023-03-26T06:18:14.315Z,4.85
2023-03-26T06:21:07.339Z,5.55
2023-03-26T06:24:02.794Z,8.07
2023-03-26T06:27:06.342Z,6.32
2023-03-26T06:29:39.393Z,5.25
2023-03-26T06:32:20.397Z,6.35
2023-03-26T06:35:05.110Z,5.80
2023-03-26T06:37:38.385Z,6.07
2023-03-26T06:43:09.331Z,6.00
2023-03-26T06:45:55.906Z,6.75
2023-03-26T06:48:45.535Z,5.60
2023-03-26T06:51:38.606Z,6.50
2023-03-26T06:54:11.801Z,6.07
2023-03-26T06:56:56.282Z,8.52
2023-03-26T06:59:41.497Z,8.95
2023-03-26T07:02:33.324Z,4.93
2023-03-26T07:05:26.276Z,4.22
2023-03-26T07:08:26.511Z,4.45
2023-03-26T07:11:34.791Z,4.43
2023-03-26T07:14:30.720Z,4.15
2023-03-26T07:17:16.904Z,19.35
2023-03-26T07:20:01.555Z,4.65
2023-03-26T07:25:14.901Z,4.32
2023-03-26T07:28:14.200Z,5.80
2023-03-26T07:31:27.293Z,4.75
2023-03-26T07:34:34.247Z,5.57
2023-03-26T07:37:34.553Z,5.35
2023-03-26T07:40:46.623Z,5.00
2023-03-26T07:43:59.121Z,7.28
2023-03-26T07:47:00.099Z,6.28
2023-03-26T07:50:03.036Z,5.93
2023-03-26T07:53:05.368Z,6.57
2023-03-26T07:56:15.562Z,6.18
2023-03-26T07:59:20.725Z,6.20
2023-03-26T08:02:41.270Z,5.07
2023-03-26T08:05:36.453Z,5.38
2023-03-26T08:08:49.251Z,3.50
2023-03-26T08:11:59.319Z,6.30
2023-03-26T08:14:45.437Z,14.05
2023-03-26T08:17:32.886Z,10.50
2023-03-26T08:20:17.375Z,6.80
2023-03-26T08:22:56.874Z,6.63
2023-03-26T08:25:35.529Z,5.25
2023-03-26T08:28:27.922Z,3.22
2023-03-26T08:31:02.897Z,3.28
2023-03-26T08:33:38.250Z,3.50
2023-03-26T08:36:12.094Z,3.13
2023-03-26T08:38:46.906Z,5.13
2023-03-26T08:41:52.228Z,4.50
2023-03-26T08:45:08.131Z,3.15
2023-03-26T08:48:10.593Z,2.50
2023-03-26T08:51:15.317Z,8.25
2023-03-26T08:54:11.655Z,3.95
2023-03-26T08:56:53.884Z,5.45
2023-03-26T09:00:01.412Z,3.05
2023-03-26T09:03:12.143Z,3.75
2023-03-26T09:06:22.632Z,3.25
2023-03-26T09:09:47.762Z,3.47
2023-03-26T09:12:46.048Z,2.72
2023-03-26T09:16:05.473Z,4.50
2023-03-26T09:19:04.791Z,3.30
2023-03-26T09:22:16.393Z,3.28
2023-03-26T09:25:08.624Z,2.20
2023-03-26T09:28:12.526Z,2.13
2023-03-26T09:31:01.397Z,3.03
2023-03-26T09:33:59.451Z,2.65
2023-03-26T09:36:40.782Z,2.22
2023-03-26T09:39:26.703Z,3.30
2023-03-26T09:42:09.599Z,2.95
2023-03-26T09:45:13.493Z,3.87
2023-03-26T09:48:31.425Z,2.58
2023-03-26T09:51:23.116Z,2.88
2023-03-26T09:54:44.417Z,4.18
2023-03-26T09:57:30.490Z,3.42
2023-03-26T10:00:17.013Z,5.32
2023-03-26T10:03:05.097Z,4.00
2023-03-26T10:05:51.127Z,1.90
2023-03-26T10:08:38.053Z,8.52
2023-03-26T10:11:19.948Z,2.30
2023-03-26T10:14:01.470Z,2.85
2023-03-26T10:16:46.084Z,3.13
2023-03-26T10:19:31.679Z,2.55
2023-03-26T10:22:14.847Z,2.53
2023-03-26T10:25:06.835Z,4.03
2023-03-26T10:27:50.736Z,2.97
2023-03-26T10:31:00.393Z,4.20
2023-03-26T10:33:43.247Z,3.05
2023-03-26T10:36:29.924Z,4.40
2023-03-26T10:39:45.891Z,4.85
2023-03-26T10:42:46.849Z,2.33
2023-03-26T10:45:37.528Z,2.72
2023-03-26T10:48:25.183Z,3.25
2023-03-26T10:51:37.055Z,2.63
2023-03-26T10:54:21.171Z,4.57
2023-03-26T10:56:56.701Z,3.78
2023-03-26T10:59:32.474Z,6.07
2023-03-26T11:02:29.589Z,5.55
2023-03-26T11:05:22.312Z,5.60
2023-03-26T11:08:02.782Z,5.32
2023-03-26T11:10:48.156Z,3.70
2023-03-26T11:13:30.984Z,4.88
2023-03-26T11:16:10.740Z,3.88
2023-03-26T11:18:52.766Z,3.97
2023-03-26T11:21:38.156Z,3.80
2023-03-26T11:24:45.102Z,4.45
2023-03-26T11:27:26.766Z,7.47
2023-03-26T11:30:15.221Z,3.72
2023-03-26T11:32:55.614Z,5.97
2023-03-26T11:35:41.937Z,3.95
2023-03-26T11:38:22.753Z,2.42
2023-03-26T11:40:58.450Z,2.40
2023-03-26T11:43:57.181Z,3.78
2023-03-26T11:46:33.813Z,3.30
2023-03-26T11:49:11.977Z,3.85
2023-03-26T11:51:48.593Z,2.90
2023-03-26T11:54:24.549Z,4.10
2023-03-26T11:57:07.213Z,2.70
2023-03-26T11:59:56.651Z,4.47
2023-03-26T12:02:40.137Z,2.40
2023-03-26T12:05:21.099Z,2.78
2023-03-26T12:07:57.922Z,3.72
2023-03-26T12:10:37.913Z,3.53
2023-03-26T12:13:43.421Z,2.08
2023-03-26T12:16:20.801Z,2.17
2023-03-26T12:19:05.481Z,2.30
2023-03-26T12:22:05.457Z,2.50
2023-03-26T12:24:45.242Z,5.50
2023-03-26T12:27:28.717Z,6.18
2023-03-26T12:30:13.180Z,3.80
2023-03-26T12:32:53.341Z,2.97
2023-03-26T12:35:30.416Z,2.05
2023-03-26T12:38:25.028Z,4.25
2023-03-26T12:44:42.290Z,2.42
2023-03-26T12:44:55.537Z,3.42
2023-03-26T12:48:00.250Z,2.38
2023-03-26T12:50:15.749Z,2.30
2023-03-26T12:53:04.015Z,2.97
2023-03-26T12:55:44.105Z,2.20
2023-03-26T12:58:41.155Z,3.30
2023-03-26T13:01:27.928Z,2.47
2023-03-26T13:04:35.881Z,3.83
2023-03-26T13:07:20.958Z,4.88
2023-03-26T13:10:17.351Z,4.15
2023-03-26T13:13:01.468Z,3.60
2023-03-26T13:15:38.073Z,5.25
2023-03-26T13:18:27.724Z,4.47
2023-03-26T13:21:08.827Z,3.92
2023-03-26T13:23:51.664Z,4.75
2023-03-26T13:26:38.177Z,4.25
2023-03-26T13:32:04.684Z,4.68
2023-03-26T13:34:56.472Z,3.30
2023-03-26T13:37:38.457Z,2.45
2023-03-26T13:40:27.929Z,2.55
2023-03-26T13:43:24.320Z,5.18
2023-03-26T13:46:01.729Z,4.30
2023-03-26T13:48:42.119Z,5.72
2023-03-26T13:51:19.782Z,3.65
2023-03-26T13:53:58.589Z,5.13
2023-03-26T13:56:36.714Z,4.95
2023-03-26T13:59:15.809Z,4.95
2023-03-26T14:01:52.631Z,6.75
2023-03-26T14:04:32.791Z,5.25
2023-03-26T14:07:15.909Z,4.47
2023-03-26T14:09:54.536Z,3.00
2023-03-26T14:12:49.382Z,4.57
2023-03-26T14:15:32.954Z,5.35
2023-03-26T14:18:16.912Z,4.47
2023-03-26T14:24:26.361Z,2.70
2023-03-26T14:27:09.581Z,4.38
2023-03-26T14:30:01.392Z,4.38
2023-03-26T14:32:49.357Z,2.60
2023-03-26T14:35:37.850Z,4.85
2023-03-26T14:38:46.253Z,3.80
2023-03-26T14:41:25.971Z,3.22
2023-03-26T14:44:48.501Z,2.72
2023-03-26T14:47:25.876Z,5.07
2023-03-26T14:50:36.934Z,3.58
2023-03-26T14:53:23.248Z,3.95
2023-03-26T14:56:41.572Z,4.57
2023-03-26T15:00:06.415Z,3.17
2023-03-26T15:03:20.048Z,4.00
2023-03-26T15:06:22.878Z,3.45
2023-03-26T15:09:49.092Z,2.95
2023-03-26T15:12:42.504Z,3.35
2023-03-26T15:15:55.290Z,4.45
2023-03-26T15:18:57.926Z,2.83
2023-03-26T15:22:04.974Z,5.70
2023-03-26T15:25:14.351Z,2.40
2023-03-26T15:28:25.475Z,3.53
2023-03-26T15:31:31.103Z,5.20
2023-03-26T15:34:30.492Z,5.38
2023-03-26T15:37:50.823Z,4.80
2023-03-26T15:40:38.139Z,9.38
2023-03-26T15:43:14.853Z,7.18
2023-03-26T15:45:53.920Z,5.07
2023-03-26T15:48:51.574Z,6.00
2023-03-26T15:51:47.073Z,5.78
2023-03-26T15:54:31.578Z,4.75
2023-03-26T15:57:21.330Z,6.72
2023-03-26T16:00:22.269Z,6.30
2023-03-26T16:03:16.050Z,6.50
2023-03-26T16:06:11.626Z,6.75
2023-03-26T16:08:57.256Z,9.05
2023-03-26T16:11:55.065Z,7.57
2023-03-26T16:14:44.663Z,8.48
2023-03-26T16:17:23.470Z,8.07
2023-03-26T16:20:31.264Z,8.05
2023-03-26T16:23:07.855Z,7.70
2023-03-26T16:25:55.482Z,7.20
2023-03-26T16:28:32.530Z,8.07
2023-03-26T16:31:38.211Z,8.40
2023-03-26T16:34:40.344Z,8.95
2023-03-26T16:37:37.112Z,5.25
2023-03-26T16:40:35.252Z,9.50
2023-03-26T16:43:30.878Z,9.02
2023-03-26T16:46:11.520Z,8.60
2023-03-26T16:48:56.228Z,24.48
2023-03-26T16:51:56.105Z,23.00
2023-03-26T16:54:43.935Z,19.42
2023-03-26T16:57:26.080Z,26.98
2023-03-26T17:00:25.605Z,33.65
2023-03-26T17:03:16.990Z,33.25
2023-03-26T17:06:07.260Z,31.02
2023-03-26T17:08:49.468Z,37.08
2023-03-26T17:11:30.361Z,38.88
2023-03-26T17:14:18.593Z,30.50
2023-03-26T17:17:10.666Z,22.17
2023-03-26T17:19:56.318Z,13.07
2023-03-26T17:22:40.912Z,13.68
2023-03-26T17:25:38.537Z,19.58
2023-03-26T17:28:50.518Z,42.22
2023-03-26T17:31:36.992Z,33.45
2023-03-26T17:34:56.724Z,25.95
2023-03-26T17:37:48.649Z,22.48
2023-03-26T17:40:33.093Z,30.08
2023-03-26T17:43:12.849Z,34.97
2023-03-26T17:46:02.740Z,28.42
2023-03-26T17:48:45.736Z,31.15
2023-03-26T17:51:32.911Z,27.80
2023-03-26T17:54:09.542Z,25.05
2023-03-26T17:56:43.421Z,20.13
2023-03-26T17:59:23.502Z,20.30
2023-03-26T18:02:03.575Z,18.73
2023-03-26T18:04:40.128Z,20.23
2023-03-26T18:07:51.048Z,17.23
2023-03-26T18:10:39.101Z,15.05
2023-03-26T18:13:57.062Z,13.45
2023-03-26T18:16:37.832Z,17.75
2023-03-26T18:19:18.578Z,14.70
2023-03-26T18:21:53.835Z,18.98
2023-03-26T18:24:30.492Z,24.98
2023-03-26T18:27:12.288Z,28.27
2023-03-26T18:29:46.998Z,44.38
2023-03-26T18:32:23.750Z,54.03
2023-03-26T18:34:59.500Z,50.03
2023-03-26T18:37:38.946Z,31.77
2023-03-26T18:40:19.313Z,27.42
2023-03-26T18:42:55.744Z,28.25
2023-03-26T18:45:32.647Z,27.48
2023-03-26T18:48:17.857Z,18.67
2023-03-26T18:50:58.352Z,17.95
2023-03-26T18:53:37.229Z,16.05
2023-03-26T18:56:21.042Z,15.10
2023-03-26T18:58:57.623Z,17.02
2023-03-26T19:01:36.623Z,42.63
2023-03-26T19:04:13.517Z,20.33
2023-03-26T19:06:47.319Z,14.80
2023-03-26T19:12:15.486Z,15.98
2023-03-26T19:15:03.768Z,19.25
2023-03-26T19:17:43.521Z,20.45
2023-03-26T19:20:27.700Z,15.10
2023-03-26T19:23:01.232Z,18.95
2023-03-26T19:25:39.716Z,20.25
2023-03-26T19:28:19.270Z,17.08
2023-03-26T19:30:57.713Z,18.50
2023-03-26T19:33:37.143Z,20.15
2023-03-26T19:36:21.199Z,25.48
2023-03-26T19:41:33.052Z,31.10
2023-03-26T19:44:17.321Z,39.67
2023-03-26T19:46:54.550Z,36.88
2023-03-26T19:49:30.376Z,65.35
2023-03-26T19:52:16.789Z,33.60
2023-03-26T19:55:02.833Z,25.02
2023-03-26T19:57:39.543Z,25.38
2023-03-26T20:00:15.341Z,22.50
2023-03-26T20:02:51.276Z,20.35
2023-03-26T20:05:27.028Z,24.05
2023-03-26T20:08:11.423Z,23.88
2023-03-26T20:10:50.684Z,24.05
2023-03-26T20:13:27.260Z,29.42
2023-03-26T20:16:10.838Z,29.52
2023-03-26T20:18:43.995Z,30.10
2023-03-26T20:21:19.997Z,30.70
2023-03-26T20:23:54.806Z,29.25
2023-03-26T20:26:28.551Z,28.60
2023-03-26T20:29:03.092Z,28.75
2023-03-26T20:31:37.566Z,30.77
2023-03-26T20:34:27.149Z,34.00
2023-03-26T20:37:04.603Z,28.52
2023-03-26T20:39:56.254Z,22.05
2023-03-26T20:42:30.052Z,26.30
2023-03-26T20:45:18.548Z,28.35
2023-03-26T20:47:57.565Z,32.03
2023-03-26T20:50:35.700Z,32.13
2023-03-26T20:53:18.473Z,45.33
2023-03-26T20:55:52.999Z,98.22
2023-03-26T20:58:34.233Z,45.95
2023-03-26T21:01:11.147Z,42.92
2023-03-26T21:03:52.416Z,35.67
2023-03-26T21:06:26.257Z,38.80
2023-03-26T21:09:00.597Z,43.33
2023-03-26T21:14:24.911Z,36.88
2023-03-26T21:17:02.337Z,41.22
2023-03-26T21:19:36.274Z,35.63
2023-03-26T21:25:04.361Z,32.22
2023-03-26T21:27:56.154Z,31.40
2023-03-26T21:30:30.069Z,28.90
2023-03-26T21:35:39.338Z,29.02
2023-03-26T21:40:58.124Z,89.20
2023-03-26T21:43:33.442Z,49.10
2023-03-26T21:46:07.484Z,29.80
2023-03-26T21:48:41.804Z,44.13
2023-03-26T21:51:18.533Z,41.10
2023-03-26T21:53:52.438Z,39.00
2023-03-26T21:56:41.883Z,32.50
2023-03-26T21:59:26.090Z,30.10
2023-03-26T22:02:06.756Z,24.15
2023-03-26T22:04:45.680Z,23.98
2023-03-26T22:07:27.482Z,19.10
2023-03-26T22:10:01.130Z,20.38
2023-03-26T22:12:36.846Z,23.35
2023-03-26T22:15:16.402Z,19.02
2023-03-26T22:17:56.394Z,16.45
2023-03-26T22:20:30.534Z,21.23
2023-03-26T22:23:03.693Z,18.15
2023-03-26T22:25:42.239Z,31.95
2023-03-26T22:28:16.005Z,23.08
2023-03-26T22:30:52.017Z,33.58
2023-03-26T22:33:27.042Z,35.83
2023-03-26T22:36:02.068Z,42.92
2023-03-26T22:38:35.534Z,32.70
2023-03-26T22:41:09.114Z,35.42
2023-03-26T22:43:42.736Z,25.95
2023-03-26T22:46:17.570Z,20.98
2023-03-26T22:48:51.942Z,21.33
2023-03-26T22:51:25.037Z,16.92
2023-03-26T22:53:58.012Z,18.95
2023-03-26T22:56:30.972Z,20.73
2023-03-26T22:59:04.347Z,22.77
2023-03-26T23:01:39.137Z,17.42
2023-03-26T23:04:12.226Z,45.22
2023-03-26T23:07:04.172Z,43.70
2023-03-26T23:09:37.615Z,43.55
2023-03-26T23:12:10.709Z,42.55
2023-03-26T23:14:43.976Z,38.30
2023-03-26T23:17:18.427Z,43.25
2023-03-26T23:19:51.802Z,38.30
2023-03-26T23:22:24.773Z,35.22
2023-03-26T23:24:57.734Z,39.22
2023-03-26T23:27:30.656Z,35.47
2023-03-26T23:30:04.193Z,26.13
2023-03-26T23:32:38.624Z,28.75
2023-03-26T23:35:12.237Z,28.48
2023-03-26T23:37:45.186Z,25.05
2023-03-26T23:40:18.742Z,27.10
2023-03-26T23:42:51.760Z,21.98
2023-03-26T23:45:24.858Z,27.23
2023-03-26T23:47:59.310Z,29.95
2023-03-26T23:50:33.139Z,29.25
2023-03-26T23:55:39.835Z,28.63
2023-03-26T23:58:12.958Z,29.40
